createdAt,value
2019-03-15T00:01:31.854Z,6.67
2019-03-15T00:04:00.120Z,5.50
2019-03-15T00:06:28.568Z,5.67
2019-03-15T00:08:57.375Z,5.97
2019-03-15T00:11:25.771Z,5.33
2019-03-15T00:13:54.027Z,6.47
2019-03-15T00:16:22.290Z,8.13
2019-03-15T00:18:50.546Z,5.17
2019-03-15T00:21:19.397Z,5.67
2019-03-15T00:23:47.719Z,6.80
2019-03-15T00:26:16.557Z,6.97
2019-03-15T00:28:44.814Z,5.57
2019-03-15T00:31:13.083Z,6.20
2019-03-15T00:33:41.339Z,3.83
2019-03-15T00:36:10.282Z,5.23
2019-03-15T00:38:40.023Z,7.60
2019-03-15T00:41:08.300Z,4.83
2019-03-15T00:43:36.554Z,4.30
2019-03-15T00:46:04.822Z,5.83
2019-03-15T00:48:33.159Z,2.73
2019-03-15T00:51:01.434Z,4.27
2019-03-15T00:53:29.695Z,6.70
2019-03-15T00:55:57.969Z,4.17
2019-03-15T00:58:26.223Z,7.57
2019-03-15T01:00:54.479Z,5.77
2019-03-15T01:03:22.754Z,7.70
2019-03-15T01:05:51.018Z,4.90
2019-03-15T01:08:19.292Z,5.97
2019-03-15T01:10:47.547Z,7.77
2019-03-15T01:13:15.818Z,4.50
2019-03-15T01:15:45.214Z,7.07
2019-03-15T01:18:13.482Z,3.87
2019-03-15T01:20:41.746Z,4.20
2019-03-15T01:23:10.011Z,4.03
2019-03-15T01:25:38.262Z,4.37
2019-03-15T01:28:06.531Z,4.30
2019-03-15T01:30:34.791Z,3.80
2019-03-15T01:33:03.067Z,3.03
2019-03-15T01:35:33.643Z,5.23
2019-03-15T01:38:01.319Z,4.50
2019-03-15T01:40:30.250Z,4.93
2019-03-15T01:42:59.086Z,2.77
2019-03-15T01:45:27.347Z,4.87
2019-03-15T01:47:55.616Z,3.47
2019-03-15T01:50:24.429Z,3.00
2019-03-15T01:52:52.847Z,4.93
2019-03-15T01:55:21.107Z,2.83
2019-03-15T01:57:49.374Z,3.70
2019-03-15T02:00:18.098Z,3.83
2019-03-15T02:02:46.376Z,3.50
2019-03-15T02:05:15.228Z,3.20
2019-03-15T02:07:43.550Z,5.20
2019-03-15T02:10:11.868Z,4.47
2019-03-15T02:12:40.138Z,3.60
2019-03-15T02:15:10.898Z,2.67
2019-03-15T02:17:39.169Z,3.03
2019-03-15T02:20:08.367Z,3.53
2019-03-15T02:22:36.637Z,3.77
2019-03-15T02:25:05.170Z,4.27
2019-03-15T02:27:33.772Z,4.03
2019-03-15T02:30:02.085Z,3.67
2019-03-15T02:32:31.130Z,2.67
2019-03-15T02:34:59.397Z,2.97
2019-03-15T02:37:27.662Z,4.37
2019-03-15T02:39:55.927Z,5.40
2019-03-15T02:42:24.184Z,3.37
2019-03-15T02:44:52.434Z,3.03
2019-03-15T02:47:20.715Z,3.07
2019-03-15T02:49:48.974Z,8.20
2019-03-15T02:52:17.840Z,5.13
2019-03-15T02:54:46.095Z,2.40
2019-03-15T02:57:14.925Z,3.50
2019-03-15T02:59:43.192Z,4.00
2019-03-15T03:02:11.452Z,4.33
2019-03-15T03:04:40.894Z,4.53
2019-03-15T03:07:09.576Z,2.77
2019-03-15T03:09:37.913Z,4.87
2019-03-15T03:12:06.167Z,3.67
2019-03-15T03:14:34.444Z,2.83
2019-03-15T03:17:02.708Z,2.50
2019-03-15T03:19:30.976Z,3.10
2019-03-15T03:21:59.239Z,3.40
2019-03-15T03:24:27.525Z,2.17
2019-03-15T03:26:55.838Z,4.47
2019-03-15T03:29:24.120Z,2.90
2019-03-15T03:31:52.384Z,3.40
2019-03-15T03:34:20.738Z,2.80
2019-03-15T03:36:49.073Z,3.73
2019-03-15T03:39:17.404Z,2.17
2019-03-15T03:41:45.655Z,2.03
2019-03-15T03:44:13.927Z,3.37
2019-03-15T03:46:42.754Z,4.53
2019-03-15T03:49:11.023Z,3.50
2019-03-15T03:51:39.279Z,2.90
2019-03-15T03:54:07.540Z,5.00
2019-03-15T03:56:35.789Z,3.43
2019-03-15T03:59:04.055Z,2.13
2019-03-15T04:01:32.315Z,2.10
2019-03-15T04:04:00.585Z,3.33
2019-03-15T04:06:28.839Z,2.23
2019-03-15T04:08:57.182Z,2.67
2019-03-15T04:11:25.434Z,3.63
2019-03-15T04:13:53.703Z,3.37
2019-03-15T04:16:21.958Z,2.50
2019-03-15T04:18:50.531Z,3.80
2019-03-15T04:21:18.786Z,2.47
2019-03-15T04:23:47.057Z,2.23
2019-03-15T04:26:15.314Z,2.00
2019-03-15T04:28:43.582Z,2.00
2019-03-15T04:31:11.842Z,1.50
2019-03-15T04:33:40.122Z,2.23
2019-03-15T04:36:08.374Z,2.43
2019-03-15T04:38:36.629Z,3.60
2019-03-15T04:41:04.902Z,2.33
2019-03-15T04:43:33.163Z,3.07
2019-03-15T04:46:01.440Z,2.53
2019-03-15T04:48:29.686Z,3.23
2019-03-15T04:50:57.950Z,2.20
2019-03-15T04:53:26.213Z,1.80
2019-03-15T04:55:54.482Z,1.97
2019-03-15T04:58:22.730Z,3.20
2019-03-15T05:00:50.993Z,1.70
2019-03-15T05:03:19.249Z,3.23
2019-03-15T05:06:01.973Z,1.20
2019-03-15T05:08:18.095Z,2.53
2019-03-15T05:10:46.353Z,3.17
2019-03-15T05:13:14.605Z,2.67
2019-03-15T05:15:43.218Z,2.20
2019-03-15T05:18:11.802Z,3.50
2019-03-15T05:20:40.061Z,1.57
2019-03-15T05:23:08.555Z,2.63
2019-03-15T05:25:36.819Z,2.37
2019-03-15T05:28:05.068Z,2.63
2019-03-15T05:30:33.334Z,3.00
2019-03-15T05:33:01.587Z,2.83
2019-03-15T05:35:29.875Z,3.43
2019-03-15T05:37:58.142Z,2.10
2019-03-15T05:40:26.554Z,5.87
2019-03-15T05:42:54.801Z,2.83
2019-03-15T05:45:23.234Z,3.17
2019-03-15T05:47:51.504Z,3.37
2019-03-15T05:50:19.763Z,3.63
2019-03-15T05:52:48.014Z,4.23
2019-03-15T05:55:16.276Z,4.90
2019-03-15T05:57:44.534Z,4.63
2019-03-15T06:00:14.886Z,3.73
2019-03-15T06:02:43.154Z,3.13
2019-03-15T06:05:11.414Z,4.50
2019-03-15T06:07:39.685Z,2.80
2019-03-15T06:10:10.474Z,4.77
2019-03-15T06:12:38.726Z,1.93
2019-03-15T06:15:08.720Z,4.07
2019-03-15T06:17:36.985Z,3.53
2019-03-15T06:20:10.425Z,4.47
2019-03-15T06:22:38.689Z,4.97
2019-03-15T06:25:11.485Z,3.60
2019-03-15T06:27:40.107Z,4.20
2019-03-15T06:30:13.356Z,2.47
2019-03-15T06:32:41.645Z,5.47
2019-03-15T06:35:09.898Z,7.43
2019-03-15T06:37:38.145Z,5.63
2019-03-15T06:40:08.450Z,9.07
2019-03-15T06:42:36.710Z,4.97
2019-03-15T06:45:10.827Z,5.63
2019-03-15T06:47:39.078Z,5.07
2019-03-15T06:50:08.197Z,6.23
2019-03-15T06:52:36.518Z,9.03
2019-03-15T06:55:06.827Z,3.97
2019-03-15T06:57:35.151Z,8.33
2019-03-15T07:00:03.959Z,5.07
2019-03-15T07:02:32.413Z,3.33
2019-03-15T07:05:01.255Z,2.73
2019-03-15T07:07:29.507Z,3.40
2019-03-15T07:09:57.781Z,5.17
2019-03-15T07:12:26.026Z,3.70
2019-03-15T07:14:54.293Z,2.37
2019-03-15T07:17:22.546Z,2.93
2019-03-15T07:19:51.073Z,3.13
2019-03-15T07:22:20.149Z,2.83
2019-03-15T07:24:48.570Z,3.23
2019-03-15T07:27:16.830Z,2.50
2019-03-15T07:29:45.103Z,5.07
2019-03-15T07:32:13.931Z,3.77
2019-03-15T07:34:42.270Z,5.13
2019-03-15T07:37:10.597Z,4.13
2019-03-15T07:39:38.861Z,2.13
2019-03-15T07:42:07.155Z,6.87
2019-03-15T07:44:35.456Z,2.40
2019-03-15T07:47:03.706Z,4.10
2019-03-15T07:49:31.974Z,2.57
2019-03-15T07:52:00.225Z,4.30
2019-03-15T07:54:37.453Z,2.77
2019-03-15T07:56:58.466Z,3.67
2019-03-15T07:59:28.007Z,2.63
2019-03-15T08:01:56.466Z,4.10
2019-03-15T08:04:25.342Z,3.63
2019-03-15T08:06:54.494Z,3.03
2019-03-15T08:09:22.762Z,5.30
2019-03-15T08:11:51.017Z,2.47
2019-03-15T08:14:19.314Z,3.00
2019-03-15T08:16:47.854Z,5.17
2019-03-15T08:19:16.118Z,4.37
2019-03-15T08:21:44.371Z,6.03
2019-03-15T08:24:12.710Z,9.37
2019-03-15T08:26:41.263Z,13.90
2019-03-15T08:29:10.148Z,27.07
2019-03-15T08:31:38.475Z,11.77
2019-03-15T08:34:06.730Z,14.50
2019-03-15T08:36:34.998Z,10.43
2019-03-15T08:39:04.217Z,9.47
2019-03-15T08:41:32.485Z,10.07
2019-03-15T08:44:00.738Z,10.03
2019-03-15T08:46:29.006Z,14.80
2019-03-15T08:48:57.262Z,13.80
2019-03-15T08:51:25.542Z,10.43
2019-03-15T08:53:53.793Z,20.17
2019-03-15T08:56:22.061Z,16.00
2019-03-15T08:58:50.318Z,13.17
2019-03-15T09:01:18.600Z,16.23
2019-03-15T09:03:46.850Z,14.53
2019-03-15T09:06:15.122Z,15.30
2019-03-15T09:08:43.388Z,24.17
2019-03-15T09:11:11.652Z,13.47
2019-03-15T09:13:39.909Z,16.60
2019-03-15T09:16:08.256Z,12.60
2019-03-15T09:18:37.194Z,10.60
2019-03-15T09:21:05.555Z,11.40
2019-03-15T09:23:34.433Z,15.17
2019-03-15T09:26:02.707Z,16.90
2019-03-15T09:28:30.958Z,14.93
2019-03-15T09:30:59.225Z,10.47
2019-03-15T09:33:27.481Z,16.83
2019-03-15T09:35:55.756Z,21.20
2019-03-15T09:38:24.018Z,25.07
2019-03-15T09:40:52.290Z,18.17
2019-03-15T09:43:20.541Z,13.70
2019-03-15T09:45:48.814Z,18.37
2019-03-15T09:48:17.074Z,12.17
2019-03-15T09:50:51.090Z,10.90
2019-03-15T09:53:15.331Z,12.53
2019-03-15T09:55:43.606Z,13.63
2019-03-15T09:58:11.853Z,15.40
2019-03-15T10:00:40.131Z,12.50
2019-03-15T10:03:21.193Z,14.53
2019-03-15T10:05:38.942Z,11.20
2019-03-15T10:08:07.209Z,11.90
2019-03-15T10:10:35.478Z,11.07
2019-03-15T10:13:06.216Z,9.77
2019-03-15T10:15:34.308Z,9.50
2019-03-15T10:18:02.655Z,8.20
2019-03-15T10:20:30.901Z,7.30
2019-03-15T10:23:05.975Z,7.47
2019-03-15T10:25:29.147Z,6.87
2019-03-15T10:27:57.488Z,5.23
2019-03-15T10:30:25.835Z,6.93
2019-03-15T10:32:54.101Z,8.50
2019-03-15T10:35:22.356Z,10.37
2019-03-15T10:37:50.620Z,6.40
2019-03-15T10:40:21.065Z,6.87
2019-03-15T10:42:49.324Z,6.93
2019-03-15T10:45:17.578Z,6.43
2019-03-15T10:47:45.850Z,10.60
2019-03-15T10:50:19.206Z,9.13
2019-03-15T10:52:47.485Z,3.93
2019-03-15T10:55:16.420Z,5.93
2019-03-15T10:57:44.676Z,8.37
2019-03-15T11:00:16.744Z,15.40
2019-03-15T11:02:45.022Z,11.90
2019-03-15T11:05:13.269Z,14.77
2019-03-15T11:07:41.543Z,13.80
2019-03-15T11:10:12.019Z,7.73
2019-03-15T11:12:40.281Z,11.80
2019-03-15T11:15:13.157Z,7.30
2019-03-15T11:17:41.433Z,7.23
2019-03-15T11:20:10.715Z,8.93
2019-03-15T11:22:39.007Z,6.00
2019-03-15T11:25:08.963Z,6.00
2019-03-15T11:27:37.230Z,6.80
2019-03-15T11:30:12.499Z,7.33
2019-03-15T11:32:40.758Z,6.47
2019-03-15T11:35:09.450Z,6.33
2019-03-15T11:37:37.719Z,11.07
2019-03-15T11:40:13.856Z,7.13
2019-03-15T11:42:41.547Z,6.63
2019-03-15T11:45:11.256Z,6.30
2019-03-15T11:48:00.604Z,8.17
2019-03-15T11:50:20.302Z,6.87
2019-03-15T11:52:48.563Z,7.33
2019-03-15T11:55:16.842Z,9.33
2019-03-15T11:57:45.186Z,7.40
2019-03-15T12:00:14.871Z,4.83
2019-03-15T12:02:43.134Z,4.70
2019-03-15T12:05:11.390Z,6.13
2019-03-15T12:07:39.654Z,5.53
2019-03-15T12:10:14.435Z,6.97
2019-03-15T12:12:42.697Z,5.40
2019-03-15T12:15:15.354Z,5.87
2019-03-15T12:17:43.609Z,5.73
2019-03-15T12:20:12.505Z,7.57
2019-03-15T12:22:40.766Z,6.07
2019-03-15T12:25:09.864Z,5.60
2019-03-15T12:27:38.401Z,6.27
2019-03-15T12:30:15.870Z,5.17
2019-03-15T12:32:44.141Z,4.63
2019-03-15T12:35:16.251Z,5.27
2019-03-15T12:37:44.567Z,6.17
2019-03-15T12:40:15.029Z,5.00
2019-03-15T12:42:43.290Z,3.87
2019-03-15T12:45:12.531Z,6.30
2019-03-15T12:47:41.090Z,4.20
2019-03-15T12:50:13.846Z,3.70
2019-03-15T12:52:47.719Z,4.93
2019-03-15T12:55:13.117Z,4.67
2019-03-15T12:57:41.382Z,7.43
2019-03-15T13:00:14.185Z,10.23
2019-03-15T13:02:42.450Z,18.27
2019-03-15T13:05:10.709Z,7.43
2019-03-15T13:07:38.967Z,8.07
2019-03-15T13:10:10.566Z,7.70
2019-03-15T13:12:38.918Z,5.40
2019-03-15T13:15:10.218Z,6.63
2019-03-15T13:17:38.476Z,8.80
2019-03-15T13:20:09.278Z,6.20
2019-03-15T13:22:37.538Z,16.10
2019-03-15T13:25:08.249Z,20.20
2019-03-15T13:27:36.510Z,8.57
2019-03-15T13:30:07.798Z,8.67
2019-03-15T13:32:36.063Z,17.77
2019-03-15T13:35:04.961Z,10.17
2019-03-15T13:37:33.217Z,21.23
2019-03-15T13:40:01.482Z,11.60
2019-03-15T13:42:29.736Z,7.07
2019-03-15T13:44:58.002Z,11.13
2019-03-15T13:47:26.258Z,6.40
2019-03-15T13:49:54.529Z,11.77
2019-03-15T13:52:22.786Z,8.50
2019-03-15T13:54:51.044Z,7.70
2019-03-15T13:57:21.538Z,9.47
2019-03-15T13:59:49.290Z,5.80
2019-03-15T14:02:17.542Z,9.40
2019-03-15T14:04:46.090Z,10.80
2019-03-15T14:07:14.356Z,9.30
2019-03-15T14:09:42.945Z,5.03
2019-03-15T14:12:11.261Z,8.73
2019-03-15T14:14:39.525Z,14.23
2019-03-15T14:17:07.783Z,8.13
2019-03-15T14:19:36.055Z,6.90
2019-03-15T14:22:06.137Z,5.20
2019-03-15T14:24:34.301Z,6.53
2019-03-15T14:27:02.549Z,7.30
2019-03-15T14:29:30.814Z,6.00
2019-03-15T14:31:59.066Z,5.93
2019-03-15T14:34:27.328Z,2.30
2019-03-15T14:36:55.753Z,4.97
2019-03-15T14:39:24.295Z,8.30
2019-03-15T14:41:53.496Z,5.50
2019-03-15T14:44:21.880Z,6.60
2019-03-15T14:46:50.496Z,8.00
2019-03-15T14:49:18.770Z,6.63
2019-03-15T14:51:47.019Z,5.60
2019-03-15T14:54:15.282Z,5.03
2019-03-15T14:56:43.543Z,7.33
2019-03-15T14:59:11.850Z,5.97
2019-03-15T15:01:40.104Z,5.60
2019-03-15T15:04:08.354Z,5.63
2019-03-15T15:06:36.626Z,4.80
2019-03-15T15:09:06.317Z,5.50
2019-03-15T15:11:34.585Z,5.30
2019-03-15T15:14:02.829Z,7.07
2019-03-15T15:16:31.091Z,7.27
2019-03-15T15:18:59.918Z,6.50
2019-03-15T15:21:28.181Z,6.07
2019-03-15T15:23:56.440Z,5.60
2019-03-15T15:26:24.697Z,5.57
2019-03-15T15:28:52.954Z,8.43
2019-03-15T15:31:21.222Z,9.87
2019-03-15T15:33:49.523Z,6.37
2019-03-15T15:36:17.855Z,7.27
2019-03-15T15:38:46.111Z,7.43
2019-03-15T15:41:14.377Z,7.57
2019-03-15T15:43:42.627Z,3.33
2019-03-15T15:46:10.902Z,7.13
2019-03-15T15:48:39.154Z,6.37
2019-03-15T15:51:07.423Z,4.87
2019-03-15T15:53:35.930Z,16.20
2019-03-15T15:56:04.200Z,5.50
2019-03-15T15:58:32.450Z,6.50
2019-03-15T16:01:00.714Z,5.93
2019-03-15T16:03:28.974Z,7.63
2019-03-15T16:05:57.241Z,8.67
2019-03-15T16:08:25.498Z,14.00
2019-03-15T16:10:53.763Z,5.90
2019-03-15T16:13:22.019Z,5.03
2019-03-15T16:15:50.291Z,4.83
2019-03-15T16:18:18.563Z,7.97
2019-03-15T16:20:46.825Z,7.50
2019-03-15T16:23:15.079Z,5.23
2019-03-15T16:25:43.347Z,4.63
2019-03-15T16:28:11.597Z,7.23
2019-03-15T16:30:39.866Z,4.73
2019-03-15T16:33:08.118Z,6.40
2019-03-15T16:35:36.398Z,6.73
2019-03-15T16:38:04.646Z,6.07
2019-03-15T16:40:33.385Z,5.13
2019-03-15T16:43:01.674Z,4.47
2019-03-15T16:45:31.083Z,6.23
2019-03-15T16:47:59.335Z,5.27
2019-03-15T16:50:27.606Z,7.47
2019-03-15T16:52:55.856Z,6.27
2019-03-15T16:55:24.106Z,4.20
2019-03-15T16:57:52.365Z,8.23
2019-03-15T17:00:20.726Z,7.03
2019-03-15T17:02:48.993Z,6.77
2019-03-15T17:05:17.245Z,5.67
2019-03-15T17:07:45.508Z,6.80
2019-03-15T17:10:17.714Z,10.83
2019-03-15T17:12:45.991Z,7.03
2019-03-15T17:15:27.399Z,5.97
2019-03-15T17:17:55.670Z,7.37
2019-03-15T17:20:23.951Z,7.20
2019-03-15T17:22:52.261Z,9.07
2019-03-15T17:25:20.514Z,11.67
2019-03-15T17:27:48.790Z,7.60
2019-03-15T17:30:17.578Z,6.47
2019-03-15T17:32:45.846Z,11.83
2019-03-15T17:35:15.338Z,8.33
2019-03-15T17:37:43.605Z,9.80
2019-03-15T17:40:16.140Z,9.13
2019-03-15T17:42:44.407Z,9.57
2019-03-15T17:45:12.653Z,6.70
2019-03-15T17:47:40.929Z,12.33
2019-03-15T17:50:18.266Z,8.63
2019-03-15T17:52:46.528Z,3.77
2019-03-15T17:55:15.419Z,7.83
2019-03-15T17:57:45.678Z,6.33
2019-03-15T18:00:23.877Z,6.33
2019-03-15T18:02:52.133Z,5.47
2019-03-15T18:05:20.399Z,7.40
2019-03-15T18:07:48.663Z,5.83
2019-03-15T18:10:16.974Z,3.23
2019-03-15T18:12:45.231Z,7.93
2019-03-15T18:15:13.522Z,6.03
2019-03-15T18:17:42.358Z,8.93
2019-03-15T18:20:10.686Z,5.90
2019-03-15T18:22:38.953Z,6.77
2019-03-15T18:25:08.447Z,12.60
2019-03-15T18:27:37.173Z,9.23
2019-03-15T18:30:08.729Z,8.63
2019-03-15T18:32:36.993Z,5.10
2019-03-15T18:35:06.389Z,6.43
2019-03-15T18:37:34.649Z,8.90
2019-03-15T18:40:03.195Z,4.53
2019-03-15T18:42:31.518Z,13.33
2019-03-15T18:44:59.767Z,5.57
2019-03-15T18:47:28.030Z,8.10
2019-03-15T18:49:56.288Z,6.47
2019-03-15T18:52:24.550Z,5.93
2019-03-15T18:54:52.810Z,9.23
2019-03-15T18:57:21.082Z,5.00
2019-03-15T18:59:49.337Z,6.30
2019-03-15T19:02:17.606Z,5.37
2019-03-15T19:04:45.861Z,3.87
2019-03-15T19:07:14.438Z,7.53
2019-03-15T19:09:42.685Z,6.13
2019-03-15T19:12:10.957Z,11.10
2019-03-15T19:14:39.777Z,5.53
2019-03-15T19:17:08.029Z,5.10
2019-03-15T19:19:36.301Z,7.43
2019-03-15T19:22:04.545Z,5.67
2019-03-15T19:24:32.805Z,5.80
2019-03-15T19:27:01.066Z,5.63
2019-03-15T19:29:29.326Z,6.27
2019-03-15T19:31:57.586Z,6.67
2019-03-15T19:34:25.850Z,5.53
2019-03-15T19:36:54.102Z,4.47
2019-03-15T19:39:22.378Z,10.57
2019-03-15T19:41:50.629Z,3.80
2019-03-15T19:44:18.895Z,3.80
2019-03-15T19:46:47.146Z,5.60
2019-03-15T19:49:15.985Z,5.27
2019-03-15T19:51:44.242Z,3.17
2019-03-15T19:54:12.518Z,3.50
2019-03-15T19:56:41.069Z,4.37
2019-03-15T19:59:09.646Z,3.00
2019-03-15T20:01:38.478Z,4.17
2019-03-15T20:04:06.746Z,4.13
2019-03-15T20:06:35.003Z,4.47
2019-03-15T20:09:03.435Z,6.13
2019-03-15T20:11:32.158Z,3.83
2019-03-15T20:14:00.426Z,4.00
2019-03-15T20:16:28.678Z,3.67
2019-03-15T20:18:56.951Z,2.33
2019-03-15T20:21:25.198Z,5.83
2019-03-15T20:23:53.731Z,3.93
2019-03-15T20:26:21.981Z,4.23
2019-03-15T20:28:50.266Z,3.23
2019-03-15T20:31:18.519Z,3.50
2019-03-15T20:33:47.038Z,2.73
2019-03-15T20:36:15.407Z,4.20
2019-03-15T20:38:43.993Z,4.87
2019-03-15T20:41:12.249Z,4.73
2019-03-15T20:43:40.508Z,3.37
2019-03-15T20:46:09.027Z,3.60
2019-03-15T20:48:37.874Z,4.23
2019-03-15T20:51:06.134Z,2.30
2019-03-15T20:53:34.394Z,2.93
2019-03-15T20:56:02.692Z,2.03
2019-03-15T20:58:30.989Z,2.70
2019-03-15T21:00:59.261Z,3.30
2019-03-15T21:03:27.530Z,3.57
2019-03-15T21:05:55.862Z,3.23
2019-03-15T21:08:24.118Z,3.23
2019-03-15T21:10:52.385Z,2.57
2019-03-15T21:13:21.206Z,3.83
2019-03-15T21:15:49.763Z,4.00
2019-03-15T21:18:18.013Z,3.17
2019-03-15T21:20:46.278Z,3.43
2019-03-15T21:23:14.525Z,2.30
2019-03-15T21:25:42.791Z,2.40
2019-03-15T21:28:11.064Z,3.43
2019-03-15T21:30:48.369Z,2.33
2019-03-15T21:33:09.353Z,3.73
2019-03-15T21:35:38.186Z,2.10
2019-03-15T21:38:06.441Z,2.17
2019-03-15T21:40:35.381Z,2.20
2019-03-15T21:43:03.638Z,3.17
2019-03-15T21:45:32.475Z,2.47
2019-03-15T21:48:00.725Z,2.93
2019-03-15T21:50:28.994Z,2.23
2019-03-15T21:52:57.249Z,2.93
2019-03-15T21:55:25.518Z,2.87
2019-03-15T21:57:53.777Z,2.10
2019-03-15T22:00:22.039Z,2.47
2019-03-15T22:02:50.293Z,1.43
2019-03-15T22:05:19.224Z,2.30
2019-03-15T22:07:47.477Z,1.67
2019-03-15T22:10:18.917Z,6.73
2019-03-15T22:12:47.182Z,4.53
2019-03-15T22:15:15.438Z,4.80
2019-03-15T22:17:43.734Z,2.93
2019-03-15T22:20:13.209Z,11.30
2019-03-15T22:22:41.534Z,13.07
2019-03-15T22:25:09.801Z,18.53
2019-03-15T22:27:38.054Z,5.90
2019-03-15T22:30:14.570Z,8.93
2019-03-15T22:32:42.821Z,8.03
2019-03-15T22:35:11.093Z,7.33
2019-03-15T22:37:39.347Z,8.13
2019-03-15T22:40:09.379Z,11.33
2019-03-15T22:42:38.000Z,5.20
2019-03-15T22:45:08.307Z,5.13
2019-03-15T22:47:36.545Z,8.37
2019-03-15T22:50:06.358Z,8.23
2019-03-15T22:52:34.610Z,9.83
2019-03-15T22:55:02.887Z,9.60
2019-03-15T22:57:31.145Z,15.37
2019-03-15T22:59:59.423Z,11.00
2019-03-15T23:02:28.255Z,7.80
2019-03-15T23:04:56.522Z,9.77
2019-03-15T23:07:24.770Z,7.17
2019-03-15T23:09:53.037Z,5.07
2019-03-15T23:12:21.290Z,6.30
2019-03-15T23:14:49.542Z,7.37
2019-03-15T23:17:17.806Z,10.30
2019-03-15T23:19:46.063Z,9.80
2019-03-15T23:22:14.334Z,13.60
2019-03-15T23:24:42.590Z,10.50
2019-03-15T23:27:10.863Z,3.80
2019-03-15T23:29:39.116Z,5.53
2019-03-15T23:32:07.391Z,5.10
2019-03-15T23:34:35.650Z,9.90
2019-03-15T23:37:04.102Z,11.00
2019-03-15T23:39:32.353Z,4.70
2019-03-15T23:42:00.617Z,3.63
2019-03-15T23:44:28.872Z,5.67
2019-03-15T23:46:57.137Z,10.17
2019-03-15T23:49:25.395Z,9.27
2019-03-15T23:51:53.693Z,8.60
2019-03-15T23:54:22.000Z,8.53
2019-03-15T23:56:50.261Z,8.90
2019-03-15T23:59:18.522Z,7.27
